Time;durP1;ratioP1;P1;durP2;ratioP2;P2;SDS_P1;SDS_P2;PMS_P1;PMS_P2;Temp;Humidity;BMP_temperature;BMP_pressure;BME280_temperature;BME280_humidity;BME280_pressure;Samples;Min_cycle;Max_cycle;Signal;HPM_P1;HPM_P2
2023/09/04 00:00:20;;;;;;;12.05;10.75;;;20.80;59.50;;;;;;5086548;28;20245;-43
2023/09/04 00:02:50;;;;;;;13.15;11.35;;;20.80;59.70;;;;;;5087131;28;20278;-42
2023/09/04 00:05:20;;;;;;;13.15;11.15;;;20.80;59.60;;;;;;5068074;28;20551;-42
2023/09/04 00:07:49;;;;;;;14.43;12.23;;;20.80;59.60;;;;;;5068671;28;20213;-43
2023/09/04 00:10:18;;;;;;;14.85;12.25;;;20.70;59.70;;;;;;5080024;28;20199;-42
2023/09/04 00:12:46;;;;;;;12.93;11.30;;;20.70;59.70;;;;;;5066899;28;20196;-42
2023/09/04 00:15:13;;;;;;;13.73;11.80;;;20.70;59.70;;;;;;5066302;28;20334;-42
2023/09/04 00:17:42;;;;;;;15.50;13.18;;;20.60;59.60;;;;;;5065014;28;20291;-43
2023/09/04 00:20:13;;;;;;;13.35;11.95;;;20.60;59.70;;;;;;5065782;28;20208;-43
2023/09/04 00:22:43;;;;;;;15.25;13.48;;;20.60;59.60;;;;;;5066528;28;20215;-42
2023/09/04 00:25:12;;;;;;;13.32;11.93;;;20.60;59.60;;;;;;5048264;28;20330;-43
2023/09/04 00:27:41;;;;;;;15.20;13.55;;;20.50;59.60;;;;;;5066858;28;20744;-43
2023/09/04 00:30:09;;;;;;;14.57;12.45;;;20.50;59.70;;;;;;5066221;28;20638;-43
2023/09/04 00:32:36;;;;;;;17.33;13.65;;;20.50;59.70;;;;;;5066638;28;20703;-42
2023/09/04 00:35:07;;;;;;;16.65;13.73;;;20.40;59.70;;;;;;5049264;28;20215;-42
2023/09/04 00:37:37;;;;;;;14.15;12.60;;;20.40;59.90;;;;;;5050438;28;20204;-43
2023/09/04 00:40:06;;;;;;;14.90;13.07;;;20.30;59.80;;;;;;5066705;28;20747;-42
2023/09/04 00:42:33;;;;;;;14.40;12.98;;;20.30;59.90;;;;;;5068398;28;20216;-43
2023/09/04 00:45:03;;;;;;;14.63;12.80;;;20.30;60.00;;;;;;5052356;28;20215;-43
2023/09/04 00:47:31;;;;;;;14.90;13.32;;;20.30;60.10;;;;;;5052848;28;20286;-42
2023/09/04 00:49:59;;;;;;;15.18;13.68;;;20.30;60.20;;;;;;5069481;28;20195;-42
2023/09/04 00:52:26;;;;;;;15.30;13.13;;;20.30;60.20;;;;;;5070133;28;20753;-43
2023/09/04 00:54:57;;;;;;;14.82;13.43;;;20.30;60.20;;;;;;5052327;28;20215;-44
2023/09/04 00:57:26;;;;;;;14.55;12.75;;;20.20;60.10;;;;;;5052404;28;20298;-42
2023/09/04 00:59:57;;;;;;;17.33;13.63;;;20.20;60.10;;;;;;5070743;28;20296;-42
2023/09/04 01:02:25;;;;;;;17.27;15.48;;;20.20;60.10;;;;;;5038868;28;20322;-43
2023/09/04 01:04:52;;;;;;;17.95;14.80;;;20.20;60.40;;;;;;5062566;28;20687;-43
2023/09/04 01:07:21;;;;;;;18.95;14.88;;;20.20;60.20;;;;;;5069798;28;20298;-43
2023/09/04 01:09:49;;;;;;;17.42;14.63;;;20.20;60.30;;;;;;5089523;28;20294;-43
2023/09/04 01:12:26;;;;;;;17.30;14.52;;;20.10;61.00;;;;;;5072005;28;20781;-43
2023/09/04 01:14:58;;;;;;;17.02;14.65;;;20.20;60.60;;;;;;5070324;28;20251;-42
2023/09/04 01:17:25;;;;;;;16.77;14.98;;;20.10;60.40;;;;;;5059379;28;20203;-43
2023/09/04 01:19:53;;;;;;;16.35;14.52;;;20.10;60.50;;;;;;5087103;28;20210;-43
2023/09/04 01:22:20;;;;;;;16.05;14.40;;;20.10;60.30;;;;;;5089620;28;20692;-43
2023/09/04 01:24:50;;;;;;;16.05;14.45;;;20.10;60.40;;;;;;5089697;28;20230;-43
2023/09/04 01:27:27;;;;;;;15.73;13.38;;;20.00;60.40;;;;;;5055303;28;20704;-43
2023/09/04 01:30:16;;;;;;;19.00;15.43;;;20.10;60.60;;;;;;5089539;28;20198;-43
2023/09/04 01:32:53;;;;;;;15.05;13.48;;;20.00;60.50;;;;;;5090275;28;20302;-43
2023/09/04 01:35:23;;;;;;;16.88;15.07;;;20.00;60.70;;;;;;5088889;28;20778;-43
2023/09/04 01:37:51;;;;;;;16.60;14.90;;;20.00;60.60;;;;;;5089689;28;20297;-43
2023/09/04 01:40:23;;;;;;;17.33;15.23;;;20.00;60.70;;;;;;5089267;28;20207;-43
2023/09/04 01:42:50;;;;;;;16.60;14.73;;;20.00;60.70;;;;;;5071288;28;20227;-44
2023/09/04 01:45:17;;;;;;;18.92;15.02;;;19.90;60.60;;;;;;5071199;28;20683;-43
2023/09/04 01:47:46;;;;;;;16.23;14.00;;;19.90;60.60;;;;;;5071322;28;20601;-42
2023/09/04 01:50:18;;;;;;;16.90;14.65;;;19.90;60.60;;;;;;5089161;28;20222;-43
2023/09/04 01:52:45;;;;;;;17.92;16.02;;;19.90;60.70;;;;;;5071002;28;20214;-43
2023/09/04 01:55:12;;;;;;;16.83;14.98;;;19.90;60.70;;;;;;5089337;28;20211;-42
2023/09/04 01:57:44;;;;;;;16.58;14.88;;;19.90;60.70;;;;;;5071121;28;20645;-43
2023/09/04 02:00:14;;;;;;;17.15;14.43;;;19.80;60.70;;;;;;5070708;28;20243;-43
2023/09/04 02:02:43;;;;;;;19.88;16.00;;;19.80;60.80;;;;;;5089431;28;20223;-42
2023/09/04 02:05:11;;;;;;;15.90;13.90;;;19.80;60.80;;;;;;5071829;28;20195;-43
2023/09/04 02:07:38;;;;;;;17.70;15.80;;;19.80;60.90;;;;;;5072749;28;20694;-43
2023/09/04 02:10:08;;;;;;;16.35;14.75;;;19.80;60.90;;;;;;5072893;28;20211;-42
2023/09/04 02:12:38;;;;;;;15.88;14.27;;;19.70;60.90;;;;;;5090859;28;20210;-43
2023/09/04 02:15:06;;;;;;;16.75;14.48;;;19.80;61.10;;;;;;5089700;28;20303;-42
2023/09/04 02:17:36;;;;;;;16.80;15.10;;;19.70;61.10;;;;;;5070833;28;20199;-43
2023/09/04 02:20:05;;;;;;;17.00;15.40;;;19.70;61.20;;;;;;5087378;28;20692;-43
2023/09/04 02:22:33;;;;;;;17.52;15.68;;;19.70;61.10;;;;;;5088765;28;20297;-43
2023/09/04 02:25:00;;;;;;;17.50;15.57;;;19.70;61.10;;;;;;5087318;28;20206;-43
2023/09/04 02:27:27;;;;;;;17.15;15.35;;;19.70;61.00;;;;;;5070644;28;20282;-43
2023/09/04 02:29:56;;;;;;;17.92;16.10;;;19.60;61.00;;;;;;5088465;28;20218;-43
2023/09/04 02:32:25;;;;;;;17.48;15.27;;;19.60;61.00;;;;;;5070605;28;20202;-42
2023/09/04 02:34:53;;;;;;;17.90;15.68;;;19.60;61.20;;;;;;5070262;28;20254;-43
2023/09/04 02:37:22;;;;;;;17.23;15.43;;;19.60;61.20;;;;;;5053246;28;20203;-43
2023/09/04 02:39:53;;;;;;;17.75;15.93;;;19.50;61.20;;;;;;5088443;28;20746;-43
2023/09/04 02:42:27;;;;;;;17.00;15.23;;;19.50;61.20;;;;;;5088504;28;20680;-43
2023/09/04 02:44:57;;;;;;;17.85;15.95;;;19.50;61.40;;;;;;5070218;28;20217;-43
2023/09/04 02:47:24;;;;;;;17.33;15.52;;;19.40;62.20;;;;;;5088574;28;20274;-42
2023/09/04 02:49:51;;;;;;;19.42;16.85;;;19.40;61.30;;;;;;5087890;28;20194;-43
2023/09/04 02:52:19;;;;;;;19.08;17.08;;;19.40;61.30;;;;;;5069533;28;20206;-43
2023/09/04 02:54:50;;;;;;;18.10;16.25;;;19.40;61.30;;;;;;5051428;28;20584;-43
2023/09/04 02:57:18;;;;;;;16.95;15.15;;;19.30;61.20;;;;;;5069442;28;20204;-43
2023/09/04 02:59:45;;;;;;;16.83;15.10;;;19.30;61.20;;;;;;5051482;28;20195;-43
2023/09/04 03:02:12;;;;;;;18.38;15.60;;;19.30;61.30;;;;;;5069662;28;20231;-43
2023/09/04 03:04:42;;;;;;;17.33;15.27;;;19.20;61.30;;;;;;5050588;28;20223;-43
2023/09/04 03:07:14;;;;;;;17.85;15.85;;;19.20;61.50;;;;;;5048893;28;20196;-43
2023/09/04 03:09:41;;;;;;;17.23;15.50;;;19.10;61.40;;;;;;5067698;28;20226;-43
2023/09/04 03:12:10;;;;;;;17.27;15.15;;;19.10;61.50;;;;;;5067434;28;20210;-43
2023/09/04 03:14:40;;;;;;;17.73;15.77;;;19.10;62.40;;;;;;5067445;28;20212;-43
2023/09/04 03:17:09;;;;;;;18.20;16.23;;;19.00;61.60;;;;;;5049192;28;20212;-43
2023/09/04 03:19:39;;;;;;;18.35;15.25;;;19.00;62.50;;;;;;5049730;28;20204;-43
2023/09/04 03:22:06;;;;;;;17.95;16.15;;;19.00;61.80;;;;;;5084926;28;20326;-43
2023/09/04 03:24:33;;;;;;;18.20;16.23;;;19.00;61.80;;;;;;5086027;28;20599;-44
2023/09/04 03:27:00;;;;;;;18.02;15.82;;;19.00;61.90;;;;;;5087764;28;20202;-44
2023/09/04 03:29:28;;;;;;;19.38;16.48;;;18.90;61.80;;;;;;5087541;28;20274;-43
2023/09/04 03:31:57;;;;;;;19.23;16.52;;;18.90;61.80;;;;;;5087397;28;20219;-44
2023/09/04 03:34:27;;;;;;;18.85;16.85;;;18.90;61.80;;;;;;5053083;28;20226;-44
2023/09/04 03:36:57;;;;;;;18.20;16.23;;;18.80;61.90;;;;;;5086234;28;20230;-43
2023/09/04 03:39:26;;;;;;;19.63;17.08;;;18.80;61.90;;;;;;5085805;28;20714;-44
2023/09/04 03:41:54;;;;;;;22.10;16.40;;;18.80;61.90;;;;;;5087248;28;20276;-44
2023/09/04 03:44:26;;;;;;;20.17;17.25;;;18.80;62.10;;;;;;5087086;28;20359;-44
2023/09/04 03:46:53;;;;;;;19.90;17.80;;;18.70;62.10;;;;;;5085358;28;20278;-44
2023/09/04 03:49:23;;;;;;;18.15;16.15;;;18.70;62.20;;;;;;5069036;28;20273;-44
2023/09/04 03:51:53;;;;;;;20.52;17.10;;;18.70;62.50;;;;;;5066226;28;20677;-44
2023/09/04 03:54:21;;;;;;;20.65;18.25;;;18.70;62.60;;;;;;5068731;28;20211;-44
2023/09/04 03:56:49;;;;;;;20.38;16.58;;;18.60;62.60;;;;;;5068461;28;20195;-44
2023/09/04 03:59:16;;;;;;;21.95;18.42;;;18.60;62.70;;;;;;5067083;28;20238;-44
2023/09/04 04:01:43;;;;;;;20.88;17.98;;;18.60;62.70;;;;;;5068321;28;20266;-43
2023/09/04 04:04:13;;;;;;;20.23;17.05;;;18.60;62.70;;;;;;5070045;28;20225;-43
2023/09/04 04:06:43;;;;;;;18.83;16.23;;;18.60;62.70;;;;;;5086178;28;20210;-44
2023/09/04 04:09:15;;;;;;;19.73;17.63;;;18.60;62.70;;;;;;5067075;28;20757;-44
2023/09/04 04:11:43;;;;;;;21.08;15.75;;;18.60;63.00;;;;;;5068314;28;20203;-43
2023/09/04 04:14:10;;;;;;;20.20;18.08;;;18.50;62.70;;;;;;5033782;28;20218;-44
2023/09/04 04:16:38;;;;;;;19.27;17.13;;;18.50;62.80;;;;;;5033135;28;20279;-45
2023/09/04 04:19:06;;;;;;;18.15;16.33;;;18.50;62.90;;;;;;5050819;28;20548;-44
2023/09/04 04:21:38;;;;;;;19.75;17.77;;;18.50;62.90;;;;;;5069580;28;20780;-44
2023/09/04 04:24:05;;;;;;;18.77;16.67;;;18.40;63.80;;;;;;5086680;28;20218;-44
2023/09/04 04:26:34;;;;;;;18.30;16.00;;;18.40;63.10;;;;;;5088143;28;20302;-45
2023/09/04 04:29:01;;;;;;;20.55;18.30;;;18.40;63.10;;;;;;5087794;28;20202;-44
2023/09/04 04:31:28;;;;;;;19.13;16.98;;;18.40;63.20;;;;;;5070076;28;20230;-43
2023/09/04 04:33:56;;;;;;;17.75;15.98;;;18.40;63.10;;;;;;5053804;28;20205;-44
2023/09/04 04:36:26;;;;;;;18.73;16.35;;;18.30;63.10;;;;;;5067286;28;20203;-44
2023/09/04 04:38:53;;;;;;;20.98;15.93;;;18.30;63.10;;;;;;5053962;28;20248;-44
2023/09/04 04:41:21;;;;;;;18.63;16.60;;;18.30;63.10;;;;;;5069753;28;20221;-44
2023/09/04 04:43:48;;;;;;;18.40;15.98;;;18.30;63.10;;;;;;5069914;28;20598;-43
2023/09/04 04:46:20;;;;;;;16.73;14.88;;;18.30;63.30;;;;;;5087823;28;20298;-44
2023/09/04 04:48:49;;;;;;;18.30;16.38;;;18.20;63.30;;;;;;5087924;28;20209;-44
2023/09/04 04:51:19;;;;;;;20.55;16.65;;;18.20;63.20;;;;;;5068950;28;20199;-44
2023/09/04 04:53:46;;;;;;;22.55;17.55;;;18.20;63.50;;;;;;5064860;28;20203;-44
2023/09/04 04:56:16;;;;;;;18.42;16.52;;;18.20;63.40;;;;;;5066981;28;20195;-44
2023/09/04 04:58:45;;;;;;;20.73;16.77;;;18.20;63.30;;;;;;5079859;28;20219;-44
2023/09/04 05:01:12;;;;;;;20.63;17.25;;;18.10;63.10;;;;;;5060678;28;20617;-44
2023/09/04 05:03:42;;;;;;;17.98;16.20;;;18.10;63.10;;;;;;5067176;28;20222;-44
2023/09/04 05:06:10;;;;;;;19.02;17.00;;;18.10;63.10;;;;;;5072611;28;20239;-44
2023/09/04 05:08:38;;;;;;;19.05;17.05;;;18.10;63.10;;;;;;5068651;28;20195;-44
2023/09/04 05:11:09;;;;;;;17.17;15.48;;;18.10;63.20;;;;;;5069245;28;20199;-44
2023/09/04 05:13:39;;;;;;;19.13;16.27;;;18.00;63.30;;;;;;5079860;28;20212;-43
2023/09/04 05:16:11;;;;;;;19.38;16.52;;;18.00;63.40;;;;;;5081581;28;20295;-44
2023/09/04 05:18:40;;;;;;;20.20;17.40;;;18.00;63.60;;;;;;5081373;28;20213;-45
2023/09/04 05:21:08;;;;;;;18.55;16.08;;;18.00;63.50;;;;;;5067942;28;20199;-44
2023/09/04 05:23:37;;;;;;;18.42;16.52;;;18.00;63.60;;;;;;5068186;28;20318;-45
2023/09/04 05:26:09;;;;;;;20.50;16.73;;;18.00;63.60;;;;;;5085639;28;20238;-44
2023/09/04 05:28:36;;;;;;;20.10;17.35;;;18.00;63.60;;;;;;5086607;28;20240;-44
2023/09/04 05:31:04;;;;;;;22.13;18.25;;;18.00;63.70;;;;;;5089728;28;20199;-44
2023/09/04 05:33:38;;;;;;;21.75;18.33;;;18.00;63.60;;;;;;5089315;28;20211;-44
2023/09/04 05:36:08;;;;;;;22.10;19.05;;;17.90;63.60;;;;;;5070128;28;20287;-44
2023/09/04 05:38:40;;;;;;;22.30;18.58;;;17.90;63.70;;;;;;5088694;28;20256;-44
2023/09/04 05:41:07;;;;;;;20.98;17.73;;;18.00;63.80;;;;;;5082670;28;20314;-44
2023/09/04 05:43:34;;;;;;;23.58;17.13;;;18.00;63.90;;;;;;5081888;28;20228;-44
2023/09/04 05:46:06;;;;;;;23.98;17.90;;;18.00;63.90;;;;;;5058339;28;20608;-43
2023/09/04 05:48:34;;;;;;;23.33;18.13;;;18.00;63.60;;;;;;5075697;28;20290;-44
2023/09/04 05:51:02;;;;;;;23.48;18.45;;;18.00;63.80;;;;;;5078208;28;20353;-44
2023/09/04 05:53:29;;;;;;;21.27;17.17;;;18.00;63.90;;;;;;5064641;28;20209;-45
2023/09/04 05:56:12;;;;;;;23.67;18.63;;;18.00;64.00;;;;;;5088171;28;20215;-44
2023/09/04 05:58:44;;;;;;;20.52;17.73;;;18.00;64.20;;;;;;5075026;28;20218;-45
2023/09/04 06:01:14;;;;;;;23.15;18.58;;;18.10;64.00;;;;;;5047879;28;20235;-44
2023/09/04 06:03:44;;;;;;;22.90;18.17;;;18.10;64.00;;;;;;5087024;28;20571;-43
2023/09/04 06:06:14;;;;;;;21.03;17.97;;;18.10;64.00;;;;;;5069257;28;20207;-44
2023/09/04 06:08:44;;;;;;;21.97;18.93;;;18.10;64.00;;;;;;5067529;28;20207;-44
2023/09/04 06:11:12;;;;;;;23.63;19.03;;;18.10;64.00;;;;;;5072527;28;20279;-44
2023/09/04 06:13:39;;;;;;;21.20;18.52;;;18.10;64.10;;;;;;5080075;28;20207;-45
2023/09/04 06:16:06;;;;;;;24.52;18.98;;;18.10;64.10;;;;;;5063144;28;20233;-45
2023/09/04 06:18:35;;;;;;;23.13;19.85;;;18.10;64.20;;;;;;5082996;28;20643;-45
2023/09/04 06:21:07;;;;;;;24.30;18.67;;;18.20;64.20;;;;;;5055402;28;20257;-45
2023/09/04 06:23:41;;;;;;;26.35;19.42;;;18.20;64.30;;;;;;5079639;28;20206;-45
2023/09/04 06:26:08;;;;;;;24.13;19.25;;;18.20;64.20;;;;;;5052644;28;20210;-45
2023/09/04 06:28:38;;;;;;;24.05;19.45;;;18.20;64.30;;;;;;5074950;28;20302;-45
2023/09/04 06:31:05;;;;;;;22.42;18.30;;;18.20;64.20;;;;;;5086084;28;20195;-44
2023/09/04 06:33:36;;;;;;;25.85;20.13;;;18.20;64.30;;;;;;5080289;28;20667;-44
2023/09/04 06:36:06;;;;;;;22.48;19.50;;;18.20;64.30;;;;;;5072058;28;20203;-45
2023/09/04 06:38:33;;;;;;;23.90;19.67;;;18.20;64.40;;;;;;5072447;28;20209;-46
2023/09/04 06:41:00;;;;;;;36.17;20.33;;;18.20;64.30;;;;;;5074713;28;20653;-45
2023/09/04 06:43:30;;;;;;;30.85;19.75;;;18.30;64.60;;;;;;5074438;28;20210;-45
2023/09/04 06:46:01;;;;;;;31.40;20.92;;;18.30;64.70;;;;;;5066113;28;20208;-45
2023/09/04 06:48:31;;;;;;;31.23;20.75;;;18.30;64.60;;;;;;5088559;28;20203;-44
2023/09/04 06:51:00;;;;;;;25.80;18.90;;;18.30;64.70;;;;;;5080800;28;20238;-46
2023/09/04 06:53:27;;;;;;;32.15;19.63;;;18.30;64.80;;;;;;5088087;28;20245;-46
2023/09/04 06:55:59;;;;;;;34.25;20.65;;;18.40;64.90;;;;;;5067830;28;20206;-45
2023/09/04 06:58:28;;;;;;;30.48;20.38;;;18.40;64.80;;;;;;5067351;28;20674;-44
2023/09/04 07:00:56;;;;;;;26.48;19.23;;;18.40;64.80;;;;;;5078234;28;20343;-45
2023/09/04 07:03:25;;;;;;;22.08;18.88;;;18.50;64.80;;;;;;5088790;28;20188;-44
2023/09/04 07:05:53;;;;;;;23.00;18.50;;;18.50;64.80;;;;;;5085369;28;20636;-45
2023/09/04 07:08:21;;;;;;;20.63;17.88;;;18.50;64.70;;;;;;5083897;28;20263;-44
2023/09/04 07:10:54;;;;;;;20.63;17.98;;;18.60;64.80;;;;;;5078505;28;20655;-44
2023/09/04 07:13:23;;;;;;;21.77;17.70;;;18.60;64.80;;;;;;5080198;28;20214;-45
2023/09/04 07:15:51;;;;;;;19.20;16.25;;;18.60;64.80;;;;;;5085620;28;20215;-44
2023/09/04 07:18:18;;;;;;;19.77;16.77;;;18.70;64.80;;;;;;5086600;28;20211;-44
2023/09/04 07:20:48;;;;;;;17.80;15.20;;;18.70;64.70;;;;;;5077494;28;20203;-44
2023/09/04 07:23:15;;;;;;;19.10;16.63;;;18.70;64.70;;;;;;5072161;28;20253;-45
2023/09/04 07:25:52;;;;;;;19.02;15.93;;;18.80;64.70;;;;;;5066859;28;20701;-43
2023/09/04 07:28:21;;;;;;;18.90;16.70;;;18.80;64.70;;;;;;5066871;28;20677;-44
2023/09/04 07:30:49;;;;;;;18.65;14.90;;;18.80;64.70;;;;;;5067185;28;20286;-45
2023/09/04 07:33:16;;;;;;;17.17;14.45;;;18.90;64.80;;;;;;5056053;28;20237;-44
2023/09/04 07:35:52;;;;;;;16.27;14.50;;;18.90;64.70;;;;;;5067146;28;20331;-44
2023/09/04 07:38:19;;;;;;;13.45;11.90;;;18.90;64.70;;;;;;5041090;28;20317;-44
2023/09/04 07:40:59;;;;;;;17.80;14.60;;;19.00;64.70;;;;;;5064797;28;20264;-44
2023/09/04 07:43:26;;;;;;;18.90;14.27;;;19.00;65.00;;;;;;5047199;28;20407;-44
2023/09/04 07:45:54;;;;;;;17.15;15.00;;;19.00;64.80;;;;;;5073482;28;20760;-43
2023/09/04 07:48:22;;;;;;;21.77;14.65;;;19.10;64.80;;;;;;5058230;28;20573;-43
2023/09/04 07:50:52;;;;;;;20.83;14.32;;;19.10;64.80;;;;;;5073842;28;20301;-44
2023/09/04 07:53:20;;;;;;;19.95;12.45;;;19.20;64.90;;;;;;5073877;28;20766;-44
2023/09/04 07:55:47;;;;;;;17.48;14.25;;;19.20;64.70;;;;;;5069806;28;20590;-44
2023/09/04 07:58:20;;;;;;;16.88;12.77;;;19.20;64.80;;;;;;5069015;28;20199;-45
2023/09/04 08:00:50;;;;;;;20.20;13.90;;;19.30;64.80;;;;;;5084967;28;20239;-43
2023/09/04 08:03:20;;;;;;;20.10;13.73;;;19.30;64.80;;;;;;5087220;28;20198;-44
2023/09/04 08:05:50;;;;;;;14.48;12.75;;;19.30;64.80;;;;;;5065937;28;20344;-43
2023/09/04 08:08:19;;;;;;;16.77;12.50;;;19.40;64.90;;;;;;5080380;28;20195;-44
2023/09/04 08:10:50;;;;;;;14.52;12.48;;;19.40;64.90;;;;;;5087644;28;20226;-44
2023/09/04 08:13:22;;;;;;;12.90;11.57;;;19.50;64.80;;;;;;5085424;28;20316;-44
2023/09/04 08:15:52;;;;;;;15.02;13.18;;;19.50;64.90;;;;;;5084199;28;20210;-44
2023/09/04 08:18:19;;;;;;;17.63;12.95;;;19.50;64.90;;;;;;5083509;28;20574;-44
2023/09/04 08:20:51;;;;;;;13.75;10.90;;;19.60;65.00;;;;;;5057820;28;20518;-45
2023/09/04 08:23:22;;;;;;;12.65;10.25;;;19.60;65.10;;;;;;5078759;28;20206;-45
2023/09/04 08:26:00;;;;;;;11.82;9.35;;;19.70;65.20;;;;;;5077597;28;20227;-45
2023/09/04 08:28:30;;;;;;;14.15;9.98;;;19.70;65.30;;;;;;5065239;28;20217;-43
2023/09/04 08:30:59;;;;;;;11.18;9.63;;;19.70;65.10;;;;;;5080763;28;20214;-45
2023/09/04 08:33:31;;;;;;;13.25;9.60;;;19.80;65.30;;;;;;5074831;28;20326;-45
2023/09/04 08:35:58;;;;;;;13.07;10.05;;;19.80;65.20;;;;;;5059615;28;20672;-43
2023/09/04 08:38:28;;;;;;;9.73;8.73;;;19.90;65.20;;;;;;5068185;28;20211;-44
2023/09/04 08:40:58;;;;;;;10.98;8.63;;;20.00;65.30;;;;;;5059391;28;20226;-43
2023/09/04 08:43:32;;;;;;;9.98;7.28;;;20.00;65.40;;;;;;5083385;28;20726;-44
2023/09/04 08:46:10;;;;;;;10.40;6.80;;;20.10;65.40;;;;;;5059022;28;20218;-44
2023/09/04 08:48:40;;;;;;;6.90;5.38;;;20.10;65.20;;;;;;5073819;28;20238;-44
2023/09/04 08:51:10;;;;;;;11.57;4.82;;;20.20;65.30;;;;;;5057824;28;20265;-44
2023/09/04 08:53:39;;;;;;;7.05;5.13;;;20.30;65.30;;;;;;5072453;28;20261;-44
2023/09/04 08:56:06;;;;;;;4.90;4.40;;;20.30;65.10;;;;;;5068164;28;20215;-44
2023/09/04 08:58:36;;;;;;;7.63;5.00;;;20.40;65.10;;;;;;5071933;28;20261;-45
2023/09/04 09:01:03;;;;;;;8.27;4.57;;;20.40;65.00;;;;;;5071773;28;20253;-44
2023/09/04 09:03:37;;;;;;;7.97;4.80;;;20.50;65.00;;;;;;5079487;28;20219;-43
2023/09/04 09:06:05;;;;;;;4.85;4.25;;;20.50;65.00;;;;;;5078289;28;20235;-44
2023/09/04 09:08:33;;;;;;;5.60;4.03;;;20.60;65.00;;;;;;5070593;28;20553;-44
2023/09/04 09:11:03;;;;;;;4.80;4.38;;;20.60;65.00;;;;;;5084268;28;20309;-44
2023/09/04 09:13:30;;;;;;;5.53;5.03;;;20.60;64.90;;;;;;5085858;28;20199;-44
2023/09/04 09:16:00;;;;;;;5.35;4.25;;;20.70;64.90;;;;;;5081990;28;20301;-44
2023/09/04 09:18:37;;;;;;;7.40;5.05;;;20.70;64.80;;;;;;5067443;28;20195;-44
2023/09/04 09:21:21;;;;;;;6.25;5.40;;;20.80;64.90;;;;;;5082961;28;20305;-44
2023/09/04 09:24:07;;;;;;;9.77;5.30;;;20.90;65.80;;;;;;5081665;28;20199;-43
2023/09/04 09:26:38;;;;;;;7.75;5.60;;;20.90;65.00;;;;;;5076467;28;20220;-44
2023/09/04 09:29:10;;;;;;;7.53;4.82;;;21.00;65.00;;;;;;5063513;28;20240;-43
2023/09/04 09:31:42;;;;;;;5.00;4.38;;;21.00;64.90;;;;;;5076009;28;20227;-44
2023/09/04 09:34:16;;;;;;;5.07;4.57;;;21.10;64.80;;;;;;5072830;28;20225;-44
2023/09/04 09:36:44;;;;;;;5.70;4.50;;;21.20;64.80;;;;;;5055664;28;20215;-44
2023/09/04 09:39:11;;;;;;;5.45;4.30;;;21.20;64.80;;;;;;5088314;28;20213;-44
2023/09/04 09:41:38;;;;;;;5.47;4.72;;;21.30;64.90;;;;;;5072688;28;20210;-44
2023/09/04 09:44:05;;;;;;;5.75;5.00;;;21.30;64.80;;;;;;5073434;28;20282;-44
2023/09/04 09:46:36;;;;;;;5.07;4.40;;;21.40;64.80;;;;;;5072498;28;20748;-44
2023/09/04 09:49:06;;;;;;;5.43;4.45;;;21.40;64.70;;;;;;5077412;28;20292;-44
2023/09/04 09:51:36;;;;;;;5.40;4.43;;;21.50;64.60;;;;;;5072388;28;20303;-44
2023/09/04 09:54:06;;;;;;;5.55;4.75;;;21.50;64.50;;;;;;5066647;28;20621;-44
2023/09/04 09:56:34;;;;;;;8.80;4.50;;;21.60;64.50;;;;;;5061202;28;20233;-44
2023/09/04 09:59:04;;;;;;;4.88;3.97;;;21.60;64.30;;;;;;5074360;28;20286;-44
2023/09/04 10:01:36;;;;;;;9.27;4.50;;;21.70;64.40;;;;;;5072263;28;20231;-44
2023/09/04 10:04:06;;;;;;;6.60;4.45;;;21.70;64.30;;;;;;5076062;28;20202;-43
2023/09/04 10:06:39;;;;;;;6.47;5.00;;;21.70;64.30;;;;;;5069356;28;20741;-44
2023/09/04 10:09:11;;;;;;;5.28;4.78;;;21.80;64.40;;;;;;5085111;28;20206;-44
2023/09/04 10:11:45;;;;;;;5.78;4.95;;;21.90;64.40;;;;;;5077295;28;20233;-43
2023/09/04 10:14:20;;;;;;;7.22;5.50;;;21.90;64.30;;;;;;5076224;28;20198;-44
2023/09/04 10:16:56;;;;;;;6.07;5.47;;;21.90;64.40;;;;;;5081566;28;20209;-44
2023/09/04 10:19:28;;;;;;;6.03;5.43;;;22.00;64.50;;;;;;5071316;28;20218;-43
2023/09/04 10:22:03;;;;;;;5.80;5.30;;;22.10;64.40;;;;;;5076952;28;20308;-44
2023/09/04 10:24:41;;;;;;;5.97;5.38;;;22.10;64.30;;;;;;5078489;28;20194;-43
2023/09/04 10:27:09;;;;;;;5.90;4.88;;;22.20;64.10;;;;;;5074470;28;20302;-43
2023/09/04 10:30:07;;;;;;;5.57;5.07;;;22.20;64.00;;;;;;5077983;28;20799;-43
2023/09/04 10:32:40;;;;;;;5.35;4.80;;;22.20;63.80;;;;;;5058374;28;20900;-43
2023/09/04 10:35:09;;;;;;;5.30;4.53;;;22.30;63.80;;;;;;5074416;28;20215;-43
2023/09/04 10:37:37;;;;;;;5.72;4.93;;;22.30;63.70;;;;;;5072366;28;20681;-43
2023/09/04 10:40:07;;;;;;;4.65;4.15;;;22.40;63.30;;;;;;5060026;28;20208;-43
2023/09/04 10:42:37;;;;;;;4.90;4.50;;;22.40;63.50;;;;;;5069058;28;20200;-43
2023/09/04 10:45:12;;;;;;;5.38;4.15;;;22.40;63.60;;;;;;5065520;28;20221;-42
2023/09/04 10:47:50;;;;;;;4.38;4.00;;;22.50;63.40;;;;;;5075032;28;20700;-43
2023/09/04 10:50:28;;;;;;;4.45;4.05;;;22.50;63.10;;;;;;5084777;28;20571;-43
2023/09/04 10:53:04;;;;;;;5.85;4.07;;;22.50;63.10;;;;;;5071209;28;20666;-43
2023/09/04 10:55:35;;;;;;;4.75;4.00;;;22.60;62.80;;;;;;5069524;28;20282;-43
2023/09/04 10:58:13;;;;;;;4.47;3.88;;;22.60;62.90;;;;;;5053018;28;20560;-43
2023/09/04 11:00:40;;;;;;;6.22;3.88;;;22.60;62.70;;;;;;5084459;28;20235;-43
2023/09/04 11:03:19;;;;;;;5.80;4.28;;;22.60;62.50;;;;;;5086400;28;20199;-44
2023/09/04 11:06:07;;;;;;;6.35;4.05;;;22.70;62.30;;;;;;5075256;28;20223;-43
2023/09/04 11:08:48;;;;;;;7.38;3.92;;;22.70;62.60;;;;;;5069947;28;20215;-43
2023/09/04 11:11:25;;;;;;;8.65;4.35;;;22.70;62.60;;;;;;5067568;28;20219;-43
2023/09/04 11:13:57;;;;;;;9.27;4.22;;;22.80;62.20;;;;;;5085128;28;20255;-42
2023/09/04 11:16:26;;;;;;;5.20;3.10;;;22.80;62.30;;;;;;5079445;28;20657;-42
2023/09/04 11:19:14;;;;;;;4.28;3.72;;;22.90;62.40;;;;;;5064699;28;20947;-43
2023/09/04 11:21:46;;;;;;;4.00;3.53;;;22.90;62.20;;;;;;5070666;28;20291;-43
2023/09/04 11:24:16;;;;;;;4.50;3.95;;;22.90;62.40;;;;;;5067621;28;20249;-44
2023/09/04 11:26:46;;;;;;;5.30;3.70;;;22.90;62.30;;;;;;5067961;28;20688;-36
2023/09/04 11:29:19;;;;;;;4.40;3.55;;;23.00;61.80;;;;;;5067912;28;20213;-36
2023/09/04 11:31:46;;;;;;;4.65;3.20;;;23.00;61.90;;;;;;5072015;28;20192;-36
2023/09/04 11:34:38;;;;;;;3.42;2.95;;;23.00;61.90;;;;;;5068429;28;20646;-36
2023/09/04 11:37:05;;;;;;;5.72;3.33;;;23.00;61.50;;;;;;5070087;28;20223;-36
2023/09/04 11:39:33;;;;;;;4.32;3.33;;;23.10;61.90;;;;;;5074771;28;20560;-36
2023/09/04 11:42:05;;;;;;;3.63;2.85;;;23.10;61.30;;;;;;5074044;28;20563;-36
2023/09/04 11:44:35;;;;;;;5.15;3.08;;;23.10;61.10;;;;;;5079806;28;20217;-36
2023/09/04 11:47:02;;;;;;;7.03;3.40;;;23.20;61.00;;;;;;5075263;28;20223;-36
2023/09/04 11:49:30;;;;;;;3.75;2.95;;;23.20;61.20;;;;;;5070946;28;20261;-36
2023/09/04 11:51:59;;;;;;;3.75;3.25;;;23.20;60.80;;;;;;5054916;28;20233;-36
2023/09/04 11:54:30;;;;;;;8.40;3.60;;;23.20;61.10;;;;;;5066989;28;20611;-36
2023/09/04 11:56:59;;;;;;;5.05;3.42;;;23.30;60.60;;;;;;5087255;28;20207;-36
2023/09/04 11:59:26;;;;;;;5.50;2.92;;;23.30;60.50;;;;;;5080801;28;20254;-36
2023/09/04 12:01:56;;;;;;;4.93;2.83;;;23.30;60.00;;;;;;5066044;28;20239;-36
2023/09/04 12:04:26;;;;;;;4.68;3.70;;;23.30;59.80;;;;;;5067287;28;20210;-36
2023/09/04 12:06:58;;;;;;;4.00;3.60;;;23.40;60.70;;;;;;5065456;28;20591;-36
2023/09/04 12:09:27;;;;;;;6.60;3.50;;;23.40;60.40;;;;;;5066194;28;20207;-36
2023/09/04 12:11:57;;;;;;;4.88;3.42;;;23.40;61.00;;;;;;5068198;28;20233;-36
2023/09/04 12:14:24;;;;;;;3.45;3.10;;;23.40;59.20;;;;;;5066055;28;20211;-36
2023/09/04 12:16:55;;;;;;;5.20;3.25;;;23.50;59.70;;;;;;5061462;28;20632;-36
2023/09/04 12:19:26;;;;;;;3.80;3.30;;;23.50;59.80;;;;;;5057638;28;20207;-36
2023/09/04 12:22:17;;;;;;;3.40;3.10;;;23.60;60.40;;;;;;5075132;28;20206;-36
2023/09/04 12:25:04;;;;;;;4.78;2.97;;;23.60;58.70;;;;;;5074097;28;20341;-36
2023/09/04 12:27:36;;;;;;;4.53;2.95;;;23.70;59.60;;;;;;5074668;28;20199;-36
2023/09/04 12:30:08;;;;;;;6.07;3.03;;;23.70;59.50;;;;;;5080464;28;20241;-36
2023/09/04 12:32:37;;;;;;;7.05;3.15;;;23.70;59.00;;;;;;5086143;28;20256;-30
2023/09/04 12:35:09;;;;;;;3.17;2.70;;;23.70;59.40;;;;;;5065851;28;20263;-29
2023/09/04 12:37:36;;;;;;;7.93;3.40;;;23.80;58.90;;;;;;5072767;28;20206;-30
2023/09/04 12:40:05;;;;;;;3.70;2.92;;;23.80;59.60;;;;;;5076193;28;20211;-30
2023/09/04 12:42:32;;;;;;;4.80;2.72;;;23.80;58.90;;;;;;5084901;28;20199;-29
2023/09/04 12:45:06;;;;;;;8.02;3.40;;;23.90;59.20;;;;;;5062856;28;20219;-30
2023/09/04 12:47:33;;;;;;;8.38;3.30;;;23.90;59.40;;;;;;5057646;28;20203;-30